createdAt,value
2018-04-15T00:00:37.591Z,8.53
2018-04-15T00:03:03.639Z,9.63
2018-04-15T00:05:29.917Z,9.77
2018-04-15T00:07:56.644Z,10.10
2018-04-15T00:10:23.448Z,9.30
2018-04-15T00:12:49.517Z,9.67
2018-04-15T00:15:16.407Z,10.93
2018-04-15T00:17:43.154Z,10.30
2018-04-15T00:20:10.274Z,9.73
2018-04-15T00:22:36.301Z,8.47
2018-04-15T00:25:02.948Z,7.57
2018-04-15T00:27:29.172Z,9.37
2018-04-15T00:29:55.451Z,10.93
2018-04-15T00:32:21.709Z,8.73
2018-04-15T00:34:47.793Z,8.90
2018-04-15T00:37:14.026Z,9.53
2018-04-15T00:39:40.500Z,9.00
2018-04-15T00:42:06.833Z,8.40
2018-04-15T00:44:33.497Z,10.03
2018-04-15T00:46:59.614Z,9.73
2018-04-15T00:49:25.759Z,14.33
2018-04-15T00:51:51.831Z,8.23
2018-04-15T00:54:17.960Z,8.30
2018-04-15T00:56:44.309Z,7.60
2018-04-15T00:59:10.437Z,8.37
2018-04-15T01:01:37.483Z,8.70
2018-04-15T01:04:03.805Z,9.63
2018-04-15T01:06:29.934Z,10.83
2018-04-15T01:08:56.075Z,12.70
2018-04-15T01:11:22.384Z,13.47
2018-04-15T01:13:49.237Z,16.93
2018-04-15T01:16:15.445Z,13.33
2018-04-15T01:18:41.727Z,13.93
2018-04-15T01:21:07.834Z,14.33
2018-04-15T01:23:34.787Z,19.03
2018-04-15T01:26:00.948Z,14.13
2018-04-15T01:28:27.153Z,15.57
2018-04-15T01:30:53.290Z,17.30
2018-04-15T01:33:20.263Z,17.57
2018-04-15T01:35:47.716Z,15.90
2018-04-15T01:38:13.827Z,16.60
2018-04-15T01:40:40.767Z,14.73
2018-04-15T01:43:07.039Z,14.40
2018-04-15T01:45:33.164Z,14.43
2018-04-15T01:47:59.308Z,13.43
2018-04-15T01:50:26.340Z,15.57
2018-04-15T01:52:53.378Z,15.13
2018-04-15T01:55:19.429Z,13.63
2018-04-15T01:57:46.784Z,13.43
2018-04-15T02:00:13.679Z,12.17
2018-04-15T02:02:39.946Z,13.33
2018-04-15T02:05:06.869Z,12.87
2018-04-15T02:07:33.125Z,12.80
2018-04-15T02:09:59.253Z,13.53
2018-04-15T02:12:26.771Z,12.90
2018-04-15T02:14:53.542Z,13.83
2018-04-15T02:17:19.703Z,15.30
2018-04-15T02:19:45.745Z,11.90
2018-04-15T02:22:11.829Z,12.23
2018-04-15T02:24:37.901Z,13.23
2018-04-15T02:27:04.025Z,12.53
2018-04-15T02:29:30.126Z,13.00
2018-04-15T02:31:56.834Z,14.63
2018-04-15T02:34:23.639Z,14.30
2018-04-15T02:36:50.615Z,14.30
2018-04-15T02:39:17.534Z,14.40
2018-04-15T02:41:43.711Z,14.87
2018-04-15T02:44:09.889Z,16.33
2018-04-15T02:46:36.607Z,15.80
2018-04-15T02:49:02.663Z,15.00
2018-04-15T02:51:28.795Z,14.90
2018-04-15T02:53:55.022Z,14.00
2018-04-15T02:56:21.238Z,18.00
2018-04-15T02:58:47.343Z,17.30
2018-04-15T03:01:13.480Z,15.60
2018-04-15T03:03:40.373Z,15.17
2018-04-15T03:06:06.574Z,13.83
2018-04-15T03:08:33.625Z,14.00
2018-04-15T03:10:59.851Z,13.20
2018-04-15T03:13:26.016Z,13.80
2018-04-15T03:15:52.192Z,11.50
2018-04-15T03:18:18.287Z,14.57
2018-04-15T03:20:44.440Z,12.53
2018-04-15T03:23:10.839Z,12.43
2018-04-15T03:25:37.053Z,12.27
2018-04-15T03:28:03.234Z,13.90
2018-04-15T03:30:29.306Z,12.67
2018-04-15T03:32:55.437Z,11.83
2018-04-15T03:35:21.658Z,12.43
2018-04-15T03:37:48.553Z,12.07
2018-04-15T03:40:14.605Z,12.57
2018-04-15T03:42:40.762Z,11.83
2018-04-15T03:45:07.770Z,12.00
2018-04-15T03:47:33.979Z,12.87
2018-04-15T03:50:00.141Z,12.03
2018-04-15T03:52:26.325Z,11.60
2018-04-15T03:54:54.523Z,11.63
2018-04-15T03:57:21.142Z,12.83
2018-04-15T03:59:47.240Z,10.67
2018-04-15T04:02:13.354Z,11.17
2018-04-15T04:04:39.495Z,12.27
2018-04-15T04:07:05.650Z,10.50
2018-04-15T04:09:31.803Z,12.83
2018-04-15T04:11:58.064Z,10.37
2018-04-15T04:14:24.806Z,11.40
2018-04-15T04:16:50.900Z,10.97
2018-04-15T04:19:29.991Z,11.13
2018-04-15T04:22:08.572Z,11.27
2018-04-15T04:24:47.035Z,10.90
2018-04-15T04:27:14.046Z,10.73
2018-04-15T04:29:40.221Z,10.27
2018-04-15T04:32:06.386Z,11.20
2018-04-15T04:34:32.709Z,10.30
2018-04-15T04:36:59.588Z,11.73
2018-04-15T04:39:25.741Z,11.53
2018-04-15T04:41:51.950Z,10.60
2018-04-15T04:44:18.076Z,9.97
2018-04-15T04:46:44.249Z,10.07
2018-04-15T04:49:10.398Z,10.90
2018-04-15T04:51:37.595Z,11.07
2018-04-15T04:54:04.054Z,10.10
2018-04-15T04:56:30.307Z,9.63
2018-04-15T04:58:57.077Z,10.40
2018-04-15T05:01:23.227Z,9.30
2018-04-15T05:03:50.452Z,9.27
2018-04-15T05:06:16.630Z,11.20
2018-04-15T05:08:43.580Z,10.17
2018-04-15T05:11:11.900Z,10.30
2018-04-15T05:13:38.033Z,10.03
2018-04-15T05:16:04.263Z,10.60
2018-04-15T05:18:30.381Z,14.90
2018-04-15T05:20:57.335Z,32.17
2018-04-15T05:23:24.688Z,12.30
2018-04-15T05:25:52.800Z,15.63
2018-04-15T05:28:19.760Z,52.50
2018-04-15T05:30:46.356Z,13.50
2018-04-15T05:33:13.248Z,11.73
2018-04-15T05:35:39.453Z,11.73
2018-04-15T05:38:05.741Z,14.70
2018-04-15T05:40:31.832Z,36.67
2018-04-15T05:42:57.974Z,14.63
2018-04-15T05:45:24.098Z,13.60
2018-04-15T05:47:50.192Z,23.73
2018-04-15T05:50:17.142Z,46.47
2018-04-15T05:52:43.313Z,14.73
2018-04-15T05:55:09.474Z,12.63
2018-04-15T05:57:36.488Z,10.50
2018-04-15T06:00:02.664Z,38.33
2018-04-15T06:02:28.828Z,16.60
2018-04-15T06:04:56.547Z,21.50
2018-04-15T06:07:22.634Z,19.97
2018-04-15T06:09:49.505Z,13.07
2018-04-15T06:12:15.848Z,11.57
2018-04-15T06:14:42.084Z,29.43
2018-04-15T06:17:08.337Z,22.97
2018-04-15T06:19:36.449Z,12.70
2018-04-15T06:22:03.361Z,12.60
2018-04-15T06:24:29.603Z,19.23
2018-04-15T06:26:56.545Z,12.33
2018-04-15T06:29:23.277Z,13.13
2018-04-15T06:31:50.283Z,12.60
2018-04-15T06:34:17.394Z,14.10
2018-04-15T06:36:45.742Z,10.67
2018-04-15T06:39:12.149Z,12.13
2018-04-15T06:41:38.413Z,12.53
2018-04-15T06:44:04.537Z,21.23
2018-04-15T06:46:31.081Z,12.70
2018-04-15T06:48:57.187Z,23.77
2018-04-15T06:51:24.053Z,11.93
2018-04-15T06:53:50.219Z,11.87
2018-04-15T06:56:16.393Z,12.03
2018-04-15T06:58:42.573Z,10.87
2018-04-15T07:01:08.674Z,11.63
2018-04-15T07:03:36.765Z,10.50
2018-04-15T07:06:03.000Z,10.83
2018-04-15T07:08:29.231Z,11.73
2018-04-15T07:10:56.221Z,10.10
2018-04-15T07:13:23.276Z,9.93
2018-04-15T07:15:49.411Z,10.83
2018-04-15T07:18:16.812Z,9.70
2018-04-15T07:20:43.147Z,11.30
2018-04-15T07:23:10.072Z,10.13
2018-04-15T07:25:36.181Z,8.90
2018-04-15T07:28:02.699Z,9.93
2018-04-15T07:30:28.978Z,9.83
2018-04-15T07:32:55.360Z,9.83
2018-04-15T07:35:21.545Z,9.40
2018-04-15T07:37:47.672Z,10.60
2018-04-15T07:40:15.619Z,9.47
2018-04-15T07:42:41.860Z,10.20
2018-04-15T07:45:08.097Z,9.50
2018-04-15T07:47:35.146Z,9.37
2018-04-15T07:50:01.982Z,8.73
2018-04-15T07:52:28.832Z,9.60
2018-04-15T07:54:55.296Z,9.13
2018-04-15T07:57:22.273Z,10.43
2018-04-15T07:59:48.612Z,9.80
2018-04-15T08:02:15.087Z,9.47
2018-04-15T08:04:41.201Z,12.50
2018-04-15T08:07:07.428Z,10.63
2018-04-15T08:09:33.545Z,9.90
2018-04-15T08:12:00.448Z,9.63
2018-04-15T08:14:27.856Z,9.27
2018-04-15T08:16:54.756Z,8.93
2018-04-15T08:19:21.681Z,9.40
2018-04-15T08:21:50.767Z,9.13
2018-04-15T08:24:18.790Z,8.43
2018-04-15T08:26:44.984Z,9.10
2018-04-15T08:29:12.220Z,8.40
2018-04-15T08:31:38.347Z,10.00
2018-04-15T08:34:06.003Z,8.30
2018-04-15T08:36:32.190Z,9.50
2018-04-15T08:38:58.307Z,8.73
2018-04-15T08:41:32.182Z,8.63
2018-04-15T08:43:59.775Z,8.77
2018-04-15T08:46:26.151Z,8.80
2018-04-15T08:48:52.690Z,8.17
2018-04-15T08:51:19.018Z,8.80
2018-04-15T08:53:45.959Z,8.17
2018-04-15T08:56:12.183Z,8.13
2018-04-15T08:58:39.060Z,9.03
2018-04-15T09:01:05.810Z,8.40
2018-04-15T09:03:32.307Z,9.13
2018-04-15T09:05:59.371Z,8.33
2018-04-15T09:08:25.653Z,7.87
2018-04-15T09:10:52.717Z,8.40
2018-04-15T09:13:19.648Z,8.53
2018-04-15T09:15:45.788Z,8.20
2018-04-15T09:18:11.995Z,9.13
2018-04-15T09:20:38.597Z,8.50
2018-04-15T09:23:05.995Z,9.73
2018-04-15T09:25:32.128Z,9.57
2018-04-15T09:27:58.364Z,10.80
2018-04-15T09:30:25.877Z,9.57
2018-04-15T09:32:52.851Z,8.50
2018-04-15T09:35:19.805Z,8.97
2018-04-15T09:37:46.750Z,8.00
2018-04-15T09:40:13.142Z,11.83
2018-04-15T09:42:39.326Z,9.67
2018-04-15T09:45:09.592Z,8.53
2018-04-15T09:47:36.791Z,11.93
2018-04-15T09:50:03.170Z,6.97
2018-04-15T09:52:29.377Z,8.50
2018-04-15T09:54:56.277Z,8.00
2018-04-15T09:57:23.522Z,8.60
2018-04-15T09:59:49.730Z,8.23
2018-04-15T10:02:15.896Z,8.40
2018-04-15T10:04:42.084Z,9.93
2018-04-15T10:07:08.950Z,7.63
2018-04-15T10:09:35.738Z,9.07
2018-04-15T10:12:01.932Z,8.63
2018-04-15T10:14:29.782Z,8.80
2018-04-15T10:16:57.680Z,7.90
2018-04-15T10:19:23.976Z,7.50
2018-04-15T10:21:51.022Z,8.97
2018-04-15T10:24:18.315Z,9.47
2018-04-15T10:26:44.460Z,8.27
2018-04-15T10:29:18.566Z,8.27
2018-04-15T10:31:46.599Z,8.97
2018-04-15T10:34:13.642Z,8.20
2018-04-15T10:36:39.855Z,7.40
2018-04-15T10:39:06.054Z,8.50
2018-04-15T10:41:32.682Z,8.00
2018-04-15T10:44:04.428Z,9.13
2018-04-15T10:46:30.603Z,9.10
2018-04-15T10:48:57.720Z,8.23
2018-04-15T10:51:25.617Z,7.87
2018-04-15T10:53:52.571Z,7.73
2018-04-15T10:56:19.444Z,9.03
2018-04-15T10:58:45.690Z,8.90
2018-04-15T11:01:13.559Z,8.33
2018-04-15T11:03:39.833Z,7.83
2018-04-15T11:06:06.225Z,8.17
2018-04-15T11:08:32.456Z,8.83
2018-04-15T11:10:58.623Z,9.93
2018-04-15T11:13:24.727Z,7.93
2018-04-15T11:15:51.139Z,8.10
2018-04-15T11:18:17.854Z,8.33
2018-04-15T11:20:44.739Z,8.10
2018-04-15T11:23:11.014Z,8.57
2018-04-15T11:25:38.691Z,9.00
2018-04-15T11:28:05.890Z,7.23
2018-04-15T11:30:32.122Z,8.40
2018-04-15T11:32:58.406Z,7.43
2018-04-15T11:35:25.367Z,8.23
2018-04-15T11:37:51.570Z,8.00
2018-04-15T11:40:19.089Z,8.07
2018-04-15T11:42:46.213Z,7.83
2018-04-15T11:45:13.194Z,7.40
2018-04-15T11:47:40.319Z,7.50
2018-04-15T11:50:08.621Z,7.30
2018-04-15T11:52:35.687Z,7.83
2018-04-15T11:55:01.853Z,8.43
2018-04-15T11:57:28.068Z,6.97
2018-04-15T11:59:54.392Z,7.27
2018-04-15T12:02:21.237Z,6.43
2018-04-15T12:04:47.567Z,7.30
2018-04-15T12:07:14.648Z,7.77
2018-04-15T12:09:41.663Z,7.73
2018-04-15T12:12:08.516Z,7.60
2018-04-15T12:14:34.632Z,6.80
2018-04-15T12:17:02.607Z,7.63
2018-04-15T12:19:28.757Z,7.17
2018-04-15T12:21:54.906Z,7.23
2018-04-15T12:24:21.110Z,6.93
2018-04-15T12:26:48.696Z,7.07
2018-04-15T12:29:15.189Z,9.67
2018-04-15T12:31:41.459Z,7.03
2018-04-15T12:34:08.410Z,8.90
2018-04-15T12:36:35.306Z,6.50
2018-04-15T12:39:02.413Z,6.30
2018-04-15T12:41:29.410Z,8.33
2018-04-15T12:43:56.549Z,6.50
2018-04-15T12:46:23.503Z,5.33
2018-04-15T12:48:49.823Z,5.73
2018-04-15T12:51:16.739Z,4.97
2018-04-15T12:53:43.973Z,7.80
2018-04-15T12:56:10.223Z,5.23
2018-04-15T12:58:36.539Z,7.73
2018-04-15T13:01:03.178Z,5.80
2018-04-15T13:03:30.384Z,5.53
2018-04-15T13:05:56.667Z,6.27
2018-04-15T13:08:23.355Z,6.20
2018-04-15T13:10:49.581Z,5.60
2018-04-15T13:13:15.822Z,5.20
2018-04-15T13:15:42.883Z,5.23
2018-04-15T13:18:09.794Z,5.20
2018-04-15T13:20:36.065Z,5.83
2018-04-15T13:23:03.038Z,6.17
2018-04-15T13:25:29.679Z,7.23
2018-04-15T13:27:55.988Z,5.67
2018-04-15T13:30:22.965Z,6.60
2018-04-15T13:32:51.714Z,7.67
2018-04-15T13:35:17.974Z,5.20
2018-04-15T13:37:44.301Z,5.40
2018-04-15T13:40:10.711Z,5.30
2018-04-15T13:42:36.823Z,5.40
2018-04-15T13:45:03.030Z,4.97
2018-04-15T13:47:30.062Z,5.30
2018-04-15T13:49:57.205Z,6.90
2018-04-15T13:52:25.084Z,5.47
2018-04-15T13:54:54.073Z,5.73
2018-04-15T13:57:21.384Z,5.00
2018-04-15T13:59:47.734Z,4.57
2018-04-15T14:02:14.057Z,4.63
2018-04-15T14:04:40.399Z,5.57
2018-04-15T14:07:06.830Z,5.40
2018-04-15T14:09:33.772Z,4.47
2018-04-15T14:12:00.181Z,5.20
2018-04-15T14:14:27.207Z,4.73
2018-04-15T14:16:55.681Z,4.47
2018-04-15T14:19:23.671Z,5.10
2018-04-15T14:21:50.222Z,4.20
2018-04-15T14:24:16.770Z,5.70
2018-04-15T14:26:45.574Z,4.53
2018-04-15T14:29:14.701Z,7.03
2018-04-15T14:31:42.526Z,4.17
2018-04-15T14:34:11.483Z,4.70
2018-04-15T14:36:41.600Z,4.90
2018-04-15T14:39:10.337Z,4.40
2018-04-15T14:41:37.306Z,4.50
2018-04-15T14:44:03.329Z,4.03
2018-04-15T14:46:30.921Z,6.53
2018-04-15T14:48:57.722Z,4.50
2018-04-15T14:51:23.787Z,3.80
2018-04-15T14:53:50.800Z,3.97
2018-04-15T14:56:17.953Z,3.77
2018-04-15T14:58:44.170Z,3.80
2018-04-15T15:01:10.554Z,4.30
2018-04-15T15:03:36.888Z,5.40
2018-04-15T15:06:03.117Z,4.53
2018-04-15T15:08:31.043Z,4.90
2018-04-15T15:10:57.357Z,5.40
2018-04-15T15:13:23.479Z,4.53
2018-04-15T15:15:50.377Z,4.33
2018-04-15T15:18:16.670Z,5.30
2018-04-15T15:20:43.048Z,4.50
2018-04-15T15:23:10.155Z,6.73
2018-04-15T15:25:37.104Z,5.67
2018-04-15T15:28:04.081Z,5.10
2018-04-15T15:30:30.128Z,4.90
2018-04-15T15:32:58.391Z,6.53
2018-04-15T15:35:25.707Z,6.03
2018-04-15T15:37:51.865Z,4.27
2018-04-15T15:40:18.518Z,4.67
2018-04-15T15:42:46.068Z,4.70
2018-04-15T15:45:13.803Z,4.47
2018-04-15T15:47:39.957Z,4.30
2018-04-15T15:50:06.312Z,4.53
2018-04-15T15:52:34.303Z,4.33
2018-04-15T15:55:00.911Z,3.20
2018-04-15T15:57:28.062Z,3.80
2018-04-15T15:59:58.098Z,3.60
2018-04-15T16:02:24.531Z,4.63
2018-04-15T16:04:50.661Z,4.87
2018-04-15T16:07:17.553Z,3.60
2018-04-15T16:09:43.750Z,4.63
2018-04-15T16:12:10.861Z,3.40
2018-04-15T16:14:37.065Z,3.47
2018-04-15T16:17:03.249Z,3.90
2018-04-15T16:19:29.505Z,10.50
2018-04-15T16:21:56.405Z,11.60
2018-04-15T16:24:23.607Z,3.50
2018-04-15T16:26:50.492Z,4.27
2018-04-15T16:29:18.352Z,4.30
2018-04-15T16:31:45.961Z,3.50
2018-04-15T16:34:13.292Z,4.50
2018-04-15T16:36:39.753Z,3.57
2018-04-15T16:39:06.833Z,3.97
2018-04-15T16:41:34.725Z,4.13
2018-04-15T16:44:01.062Z,4.40
2018-04-15T16:46:28.738Z,3.93
2018-04-15T16:48:54.936Z,5.40
2018-04-15T16:51:21.538Z,4.20
2018-04-15T16:53:47.768Z,4.47
2018-04-15T16:56:14.050Z,5.10
2018-04-15T16:58:40.269Z,3.80
2018-04-15T17:01:06.487Z,4.87
2018-04-15T17:03:33.714Z,4.23
2018-04-15T17:06:02.940Z,4.63
2018-04-15T17:08:29.997Z,4.83
2018-04-15T17:10:57.033Z,7.67
2018-04-15T17:13:24.072Z,6.57
2018-04-15T17:15:51.243Z,5.40
2018-04-15T17:18:17.474Z,5.77
2018-04-15T17:20:43.780Z,5.53
2018-04-15T17:23:09.973Z,5.87
2018-04-15T17:25:37.905Z,5.93
2018-04-15T17:28:04.950Z,6.57
2018-04-15T17:30:32.568Z,7.63
2018-04-15T17:32:59.518Z,7.63
2018-04-15T17:38:58.327Z,7.00
2018-04-15T17:41:26.035Z,6.00
2018-04-15T17:43:54.565Z,9.00
2018-04-15T17:46:20.863Z,7.20
2018-04-15T17:48:46.920Z,7.13
2018-04-15T17:51:13.095Z,7.87
2018-04-15T17:53:39.891Z,7.37
2018-04-15T17:56:06.400Z,7.70
2018-04-15T17:58:32.699Z,8.50
2018-04-15T18:00:58.821Z,8.10
2018-04-15T18:03:24.918Z,11.13
2018-04-15T18:05:51.795Z,10.10
2018-04-15T18:08:17.924Z,10.00
2018-04-15T18:10:44.865Z,8.00
2018-04-15T18:13:11.877Z,8.27
2018-04-15T18:15:39.479Z,6.93
2018-04-15T18:18:06.589Z,8.77
2018-04-15T18:20:32.969Z,10.20
2018-04-15T18:23:00.164Z,7.73
2018-04-15T18:25:26.679Z,7.53
2018-04-15T18:27:53.629Z,9.70
2018-04-15T18:30:20.939Z,8.37
2018-04-15T18:32:47.719Z,8.83
2018-04-15T18:35:14.010Z,8.90
2018-04-15T18:37:40.813Z,8.90
2018-04-15T18:40:06.975Z,7.70
2018-04-15T18:42:33.315Z,7.63
2018-04-15T18:44:59.534Z,7.93
2018-04-15T18:47:26.472Z,7.90
2018-04-15T18:49:52.908Z,14.10
2018-04-15T18:52:19.758Z,11.70
2018-04-15T18:54:47.261Z,12.00
2018-04-15T18:57:14.360Z,12.27
2018-04-15T18:59:47.214Z,20.03
2018-04-15T19:02:13.460Z,13.27
2018-04-15T19:04:42.774Z,10.90
2018-04-15T19:07:09.571Z,11.50
2018-04-15T19:09:35.926Z,12.40
2018-04-15T19:12:04.085Z,13.60
2018-04-15T19:14:32.035Z,11.97
2018-04-15T19:17:01.175Z,11.67
2018-04-15T19:19:29.298Z,12.50
2018-04-15T19:21:57.113Z,11.33
2018-04-15T19:24:23.483Z,11.70
2018-04-15T19:26:49.803Z,12.83
2018-04-15T19:29:16.272Z,13.10
2018-04-15T19:31:42.589Z,15.73
2018-04-15T19:34:10.437Z,11.60
2018-04-15T19:36:36.829Z,10.60
2018-04-15T19:39:06.186Z,11.90
2018-04-15T19:41:33.778Z,11.13
2018-04-15T19:44:00.273Z,12.27
2018-04-15T19:46:27.887Z,13.17
2018-04-15T19:48:54.887Z,13.03
2018-04-15T19:51:25.344Z,13.40
2018-04-15T19:53:54.192Z,14.43
2018-04-15T19:56:22.588Z,14.00
2018-04-15T19:58:48.730Z,14.67
2018-04-15T20:01:16.817Z,13.23
2018-04-15T20:03:43.996Z,12.50
2018-04-15T20:06:11.123Z,12.43
2018-04-15T20:08:37.429Z,10.40
2018-04-15T20:11:05.344Z,10.87
2018-04-15T20:13:31.498Z,10.80
2018-04-15T20:15:58.236Z,12.53
2018-04-15T20:18:24.638Z,11.50
2018-04-15T20:20:52.742Z,10.13
2018-04-15T20:23:19.687Z,8.43
2018-04-15T20:25:46.191Z,9.73
2018-04-15T20:28:12.931Z,14.03
2018-04-15T20:30:43.220Z,15.67
2018-04-15T20:33:10.228Z,16.70
2018-04-15T20:35:37.078Z,14.10
2018-04-15T20:38:03.304Z,13.00
2018-04-15T20:40:30.451Z,14.00
2018-04-15T20:42:58.521Z,10.10
2018-04-15T20:45:24.781Z,8.70
2018-04-15T20:47:52.177Z,9.57
2018-04-15T20:50:18.512Z,10.63
2018-04-15T20:52:45.804Z,9.23
2018-04-15T20:55:13.109Z,7.50
2018-04-15T20:57:41.135Z,7.90
2018-04-15T21:00:08.668Z,6.60
2018-04-15T21:02:34.812Z,6.73
2018-04-15T21:05:01.022Z,8.37
2018-04-15T21:07:27.252Z,7.23
2018-04-15T21:09:54.394Z,7.70
2018-04-15T21:12:21.423Z,7.00
2018-04-15T21:14:47.662Z,11.50
2018-04-15T21:17:14.462Z,7.17
2018-04-15T21:19:40.873Z,7.37
2018-04-15T21:22:07.212Z,6.53
2018-04-15T21:24:33.656Z,5.20
2018-04-15T21:26:59.882Z,5.23
2018-04-15T21:29:25.962Z,4.40
2018-04-15T21:31:52.133Z,5.90
2018-04-15T21:34:18.965Z,4.37
2018-04-15T21:36:48.472Z,4.10
2018-04-15T21:39:15.389Z,4.40
2018-04-15T21:41:41.553Z,4.70
2018-04-15T21:44:07.640Z,5.83
2018-04-15T21:46:33.743Z,4.10
2018-04-15T21:49:00.026Z,3.70
2018-04-15T21:51:26.244Z,3.57
2018-04-15T21:53:53.698Z,3.50
2018-04-15T21:56:20.389Z,3.50
2018-04-15T21:58:46.635Z,3.00
2018-04-15T22:01:13.977Z,3.50
2018-04-15T22:03:40.520Z,5.10
2018-04-15T22:06:07.434Z,4.20
2018-04-15T22:08:33.565Z,5.50
2018-04-15T22:11:00.765Z,4.70
2018-04-15T22:13:26.986Z,4.70
2018-04-15T22:15:54.668Z,3.70
2018-04-15T22:18:21.817Z,3.80
2018-04-15T22:20:48.810Z,4.10
2018-04-15T22:23:17.788Z,4.53
2018-04-15T22:25:44.849Z,4.40
2018-04-15T22:28:11.084Z,4.07
2018-04-15T22:30:38.996Z,3.90
2018-04-15T22:33:05.190Z,4.23
2018-04-15T22:35:31.362Z,3.90
2018-04-15T22:37:57.529Z,4.60
2018-04-15T22:40:24.521Z,4.47
2018-04-15T22:42:51.506Z,4.57
2018-04-15T22:45:17.690Z,4.73
2018-04-15T22:47:49.887Z,4.70
2018-04-15T22:50:17.325Z,4.83
2018-04-15T22:52:43.588Z,4.00
2018-04-15T22:55:09.793Z,4.50
2018-04-15T22:57:36.007Z,5.03
2018-04-15T23:00:02.144Z,3.83
2018-04-15T23:02:28.980Z,4.43
2018-04-15T23:04:55.103Z,4.53
2018-04-15T23:07:21.666Z,4.00
2018-04-15T23:09:48.608Z,5.00
2018-04-15T23:12:16.427Z,4.30
2018-04-15T23:14:42.479Z,4.20
2018-04-15T23:17:09.554Z,4.53
2018-04-15T23:19:36.762Z,7.80
2018-04-15T23:22:03.009Z,4.33
2018-04-15T23:24:29.958Z,4.53
2018-04-15T23:26:56.069Z,4.87
2018-04-15T23:29:22.206Z,4.60
2018-04-15T23:31:48.417Z,4.77
2018-04-15T23:34:14.501Z,5.10
2018-04-15T23:36:41.395Z,4.07
2018-04-15T23:39:07.490Z,4.10
2018-04-15T23:41:34.457Z,4.50
2018-04-15T23:44:01.395Z,12.67
2018-04-15T23:46:27.602Z,4.17
2018-04-15T23:48:54.825Z,4.30
2018-04-15T23:51:21.203Z,4.10
2018-04-15T23:53:48.285Z,11.10
2018-04-15T23:56:14.326Z,4.10
2018-04-15T23:58:42.707Z,4.83
